Time;durP1;ratioP1;P1;durP2;ratioP2;P2;SDS_P1;SDS_P2;PMS_P1;PMS_P2;Temp;Humidity;BMP_temperature;BMP_pressure;BME280_temperature;BME280_humidity;BME280_pressure;Samples;Min_cycle;Max_cycle;Signal;HPM_P1;HPM_P2
2022/01/07 00:00:17;;;;;;;8.73;4.20;;;;;;;;;;4996419;28;20058;-67
2022/01/07 00:02:46;;;;;;;7.82;3.63;;;;;;;;;;4980151;28;20463;-67
2022/01/07 00:05:12;;;;;;;9.38;3.85;;;;;;;;;;4989743;28;20029;-67
2022/01/07 00:07:38;;;;;;;6.40;4.10;;;;;;;;;;4999147;28;20053;-67
2022/01/07 00:10:04;;;;;;;7.65;3.97;;;;;;;;;;4992993;28;20712;-67
2022/01/07 00:12:29;;;;;;;6.55;4.38;;;;;;;;;;4994583;28;20076;-67
2022/01/07 00:14:54;;;;;;;5.93;3.97;;;;;;;;;;4997696;28;20164;-67
2022/01/07 00:17:20;;;;;;;8.05;3.92;;;;;;;;;;4998103;28;20025;-67
2022/01/07 00:19:45;;;;;;;6.05;3.92;;;;;;;;;;5016072;28;20080;-67
2022/01/07 00:22:11;;;;;;;7.68;4.32;;;;;;;;;;5000234;28;20027;-67
2022/01/07 00:24:36;;;;;;;6.13;4.10;;;;;;;;;;5001614;28;20029;-67
2022/01/07 00:27:01;;;;;;;10.90;5.10;;;;;;;;;;4999334;28;20084;-67
2022/01/07 00:29:27;;;;;;;11.02;5.50;;;;;;;;;;5000378;28;20058;-67
2022/01/07 00:31:52;;;;;;;10.13;5.20;;;;;;;;;;5000137;28;20421;-67
2022/01/07 00:34:17;;;;;;;7.72;5.07;;;;;;;;;;4993870;28;20184;-67
2022/01/07 00:36:43;;;;;;;10.38;5.30;;;;;;;;;;4997567;28;20063;-67
2022/01/07 00:39:08;;;;;;;9.13;5.10;;;;;;;;;;4997577;28;20034;-67
2022/01/07 00:41:33;;;;;;;11.60;5.70;;;;;;;;;;4998273;28;20443;-67
2022/01/07 00:43:59;;;;;;;9.55;4.30;;;;;;;;;;5001046;28;20621;-69
2022/01/07 00:46:24;;;;;;;8.25;5.20;;;;;;;;;;4996312;28;20037;-68
2022/01/07 00:48:49;;;;;;;11.38;5.07;;;;;;;;;;4996432;28;20057;-68
2022/01/07 00:51:15;;;;;;;9.05;4.53;;;;;;;;;;4996680;28;20034;-68
2022/01/07 00:53:41;;;;;;;12.30;4.65;;;;;;;;;;4996029;28;20026;-68
2022/01/07 00:56:06;;;;;;;9.15;4.95;;;;;;;;;;4996916;28;20064;-68
2022/01/07 00:58:32;;;;;;;6.30;3.83;;;;;;;;;;4994899;28;20065;-68
2022/01/07 01:00:57;;;;;;;11.32;4.90;;;;;;;;;;4993040;28;20073;-68
2022/01/07 01:03:22;;;;;;;9.60;4.95;;;;;;;;;;4998071;28;20062;-68
2022/01/07 01:05:49;;;;;;;11.32;5.10;;;;;;;;;;4996075;28;20038;-68
2022/01/07 01:08:14;;;;;;;8.93;3.90;;;;;;;;;;4997686;28;20037;-68
2022/01/07 01:10:40;;;;;;;7.43;4.45;;;;;;;;;;4998140;28;20061;-68
2022/01/07 01:13:05;;;;;;;9.43;4.82;;;;;;;;;;4997878;28;20391;-68
2022/01/07 01:15:30;;;;;;;12.55;5.20;;;;;;;;;;4996341;28;20144;-68
2022/01/07 01:17:57;;;;;;;11.43;4.80;;;;;;;;;;4996471;28;21291;-68
2022/01/07 01:20:22;;;;;;;8.90;4.43;;;;;;;;;;4997739;28;20467;-69
2022/01/07 01:22:48;;;;;;;11.07;4.30;;;;;;;;;;4994662;28;20034;-68
2022/01/07 01:25:13;;;;;;;14.77;4.93;;;;;;;;;;4997610;28;20080;-68
2022/01/07 01:27:40;;;;;;;8.65;4.20;;;;;;;;;;4997877;28;20495;-68
2022/01/07 01:30:07;;;;;;;12.45;5.28;;;;;;;;;;4997545;28;20429;-68
2022/01/07 01:32:32;;;;;;;11.85;4.05;;;;;;;;;;5013111;28;20116;-68
2022/01/07 01:34:57;;;;;;;11.65;5.50;;;;;;;;;;4997979;28;20089;-68
2022/01/07 01:37:22;;;;;;;9.40;4.97;;;;;;;;;;4997854;28;20034;-68
2022/01/07 01:39:48;;;;;;;10.35;4.72;;;;;;;;;;4997686;28;20036;-68
2022/01/07 01:42:13;;;;;;;9.02;4.95;;;;;;;;;;4997085;28;20145;-68
2022/01/07 01:44:38;;;;;;;7.15;4.32;;;;;;;;;;4997258;28;20109;-68
2022/01/07 01:47:04;;;;;;;9.35;4.45;;;;;;;;;;4997693;28;20555;-68
2022/01/07 01:49:29;;;;;;;9.80;4.57;;;;;;;;;;4998364;28;20068;-68
2022/01/07 01:51:55;;;;;;;10.07;4.20;;;;;;;;;;4996930;28;20080;-68
2022/01/07 01:54:20;;;;;;;7.05;4.50;;;;;;;;;;4978156;28;20064;-68
2022/01/07 01:56:45;;;;;;;10.63;4.68;;;;;;;;;;4997135;28;20070;-68
2022/01/07 01:59:11;;;;;;;9.85;4.95;;;;;;;;;;4997392;28;20037;-68
2022/01/07 02:01:36;;;;;;;9.98;4.32;;;;;;;;;;4996401;28;20039;-68
2022/01/07 02:04:02;;;;;;;7.40;3.80;;;;;;;;;;4998101;28;20056;-68
2022/01/07 02:06:27;;;;;;;10.18;3.90;;;;;;;;;;4996875;28;20030;-68
2022/01/07 02:08:53;;;;;;;5.80;3.70;;;;;;;;;;4996132;28;20037;-68
2022/01/07 02:11:18;;;;;;;7.47;3.95;;;;;;;;;;4998037;28;20443;-68
2022/01/07 02:13:47;;;;;;;6.60;3.03;;;;;;;;;;4980684;28;20108;-68
2022/01/07 02:16:13;;;;;;;8.20;3.30;;;;;;;;;;4996676;28;20034;-68
2022/01/07 02:18:38;;;;;;;5.80;3.00;;;;;;;;;;4995071;28;20500;-68
2022/01/07 02:21:04;;;;;;;6.55;3.17;;;;;;;;;;4996119;28;20038;-68
2022/01/07 02:23:29;;;;;;;7.15;3.35;;;;;;;;;;4996226;28;20108;-69
2022/01/07 02:25:56;;;;;;;7.07;3.10;;;;;;;;;;4996747;28;20160;-68
2022/01/07 02:28:21;;;;;;;6.05;3.13;;;;;;;;;;4996572;28;20121;-69
2022/01/07 02:30:46;;;;;;;7.25;3.20;;;;;;;;;;4995843;28;20580;-68
2022/01/07 02:33:11;;;;;;;4.60;2.47;;;;;;;;;;4996761;28;20156;-69
2022/01/07 02:35:38;;;;;;;4.38;3.05;;;;;;;;;;4996473;28;20165;-68
2022/01/07 02:38:03;;;;;;;10.85;2.80;;;;;;;;;;4996026;28;20040;-68
2022/01/07 02:40:29;;;;;;;4.57;2.97;;;;;;;;;;5000593;28;20034;-68
2022/01/07 02:42:54;;;;;;;4.13;2.75;;;;;;;;;;4999897;28;20050;-68
2022/01/07 02:45:20;;;;;;;5.25;3.10;;;;;;;;;;5001131;28;20018;-69
2022/01/07 02:47:49;;;;;;;6.05;3.10;;;;;;;;;;4999627;28;20089;-68
2022/01/07 02:50:26;;;;;;;6.25;3.15;;;;;;;;;;4999222;28;20038;-68
2022/01/07 02:52:51;;;;;;;5.35;3.42;;;;;;;;;;5001200;28;20081;-68
2022/01/07 02:55:17;;;;;;;7.80;3.08;;;;;;;;;;5000777;28;20034;-68
2022/01/07 02:57:42;;;;;;;8.63;3.67;;;;;;;;;;5000593;28;20117;-68
2022/01/07 03:00:08;;;;;;;6.03;2.80;;;;;;;;;;4997558;28;20026;-68
2022/01/07 03:02:34;;;;;;;5.75;2.80;;;;;;;;;;4981990;28;20232;-68
2022/01/07 03:04:59;;;;;;;5.82;2.72;;;;;;;;;;5000308;28;20062;-68
2022/01/07 03:07:24;;;;;;;7.53;3.30;;;;;;;;;;5000371;28;20061;-68
2022/01/07 03:09:50;;;;;;;6.63;3.50;;;;;;;;;;5000012;28;20127;-68
2022/01/07 03:12:15;;;;;;;7.63;3.10;;;;;;;;;;4999190;28;20084;-68
2022/01/07 03:14:40;;;;;;;5.50;3.38;;;;;;;;;;5000353;28;20034;-68
2022/01/07 03:17:06;;;;;;;10.15;4.13;;;;;;;;;;5001185;28;20412;-68
2022/01/07 03:19:31;;;;;;;8.05;3.70;;;;;;;;;;5000954;28;20061;-69
2022/01/07 03:21:56;;;;;;;6.43;3.55;;;;;;;;;;5000194;28;20025;-68
2022/01/07 03:24:22;;;;;;;10.88;3.83;;;;;;;;;;5000068;28;20388;-68
2022/01/07 03:26:47;;;;;;;8.60;3.97;;;;;;;;;;4999779;28;20021;-68
2022/01/07 03:29:12;;;;;;;9.55;3.92;;;;;;;;;;4998203;28;20098;-68
2022/01/07 03:31:38;;;;;;;5.05;3.05;;;;;;;;;;4998052;28;20070;-68
2022/01/07 03:34:03;;;;;;;9.05;3.70;;;;;;;;;;4999600;28;20060;-68
2022/01/07 03:36:28;;;;;;;6.13;3.40;;;;;;;;;;4999173;28;20037;-68
2022/01/07 03:38:54;;;;;;;5.53;3.63;;;;;;;;;;4999914;28;20129;-68
2022/01/07 03:41:19;;;;;;;6.75;3.28;;;;;;;;;;4999314;28;20039;-68
2022/01/07 03:43:45;;;;;;;9.20;3.65;;;;;;;;;;4999349;28;20030;-68
2022/01/07 03:46:10;;;;;;;4.97;3.63;;;;;;;;;;4999373;28;20505;-68
2022/01/07 03:48:35;;;;;;;7.82;3.80;;;;;;;;;;4999961;28;20543;-67
2022/01/07 03:51:01;;;;;;;5.50;3.58;;;;;;;;;;4998724;28;20026;-68
2022/01/07 03:53:26;;;;;;;5.00;3.15;;;;;;;;;;4998644;28;20393;-68
2022/01/07 03:55:52;;;;;;;6.57;3.58;;;;;;;;;;4999269;28;20145;-68
2022/01/07 03:58:18;;;;;;;7.22;3.70;;;;;;;;;;4998610;28;20034;-68
2022/01/07 04:00:43;;;;;;;12.02;4.25;;;;;;;;;;4998770;28;20038;-69
2022/01/07 04:03:13;;;;;;;5.78;3.25;;;;;;;;;;4999732;28;20120;-68
2022/01/07 04:05:39;;;;;;;7.10;3.28;;;;;;;;;;4998800;28;20512;-68
2022/01/07 04:08:05;;;;;;;7.70;3.05;;;;;;;;;;4997643;28;20224;-68
2022/01/07 04:10:30;;;;;;;8.23;3.30;;;;;;;;;;4981048;28;20030;-68
2022/01/07 04:12:55;;;;;;;7.68;2.75;;;;;;;;;;4998632;28;20128;-68
2022/01/07 04:15:23;;;;;;;4.25;2.97;;;;;;;;;;4997443;28;20085;-68
2022/01/07 04:17:50;;;;;;;6.03;2.85;;;;;;;;;;4996618;28;20030;-68
2022/01/07 04:20:16;;;;;;;9.13;3.20;;;;;;;;;;4978443;28;20448;-68
2022/01/07 04:22:42;;;;;;;8.95;3.40;;;;;;;;;;4994242;28;20121;-68
2022/01/07 04:25:09;;;;;;;6.82;3.03;;;;;;;;;;4996319;28;20026;-68
2022/01/07 04:27:34;;;;;;;4.90;3.35;;;;;;;;;;4998113;28;20507;-68
2022/01/07 04:30:00;;;;;;;5.30;3.25;;;;;;;;;;4997147;28;20076;-68
2022/01/07 04:32:25;;;;;;;9.32;3.78;;;;;;;;;;4996969;28;20042;-68
2022/01/07 04:34:51;;;;;;;5.90;3.45;;;;;;;;;;4998036;28;20022;-68
2022/01/07 04:37:16;;;;;;;6.28;3.40;;;;;;;;;;4997383;28;20037;-69
2022/01/07 04:39:41;;;;;;;8.05;3.95;;;;;;;;;;4998375;28;20045;-69
2022/01/07 04:42:07;;;;;;;5.93;3.58;;;;;;;;;;4998319;28;20034;-68
2022/01/07 04:44:32;;;;;;;8.23;4.00;;;;;;;;;;4998482;28;20417;-68
2022/01/07 04:46:58;;;;;;;7.65;3.83;;;;;;;;;;4998484;28;20107;-68
2022/01/07 04:49:23;;;;;;;10.57;3.10;;;;;;;;;;4997154;28;20104;-68
2022/01/07 04:51:48;;;;;;;6.95;3.42;;;;;;;;;;4999640;28;20115;-68
2022/01/07 04:54:13;;;;;;;5.97;3.10;;;;;;;;;;4999732;28;20371;-68
2022/01/07 04:56:39;;;;;;;3.33;2.63;;;;;;;;;;4999869;28;20527;-68
2022/01/07 04:59:04;;;;;;;5.30;2.88;;;;;;;;;;4998549;28;20042;-69
2022/01/07 05:01:29;;;;;;;6.10;2.50;;;;;;;;;;4997687;28;20057;-68
2022/01/07 05:03:55;;;;;;;3.97;2.60;;;;;;;;;;4998464;28;20021;-68
2022/01/07 05:06:53;;;;;;;4.63;2.72;;;;;;;;;;4998759;28;20038;-70
2022/01/07 05:09:13;;;;;;;5.65;3.10;;;;;;;;;;4995911;28;20132;-70
2022/01/07 05:11:39;;;;;;;4.22;2.85;;;;;;;;;;4997550;28;20026;-71
2022/01/07 05:14:04;;;;;;;6.93;3.35;;;;;;;;;;4998674;28;20025;-70
2022/01/07 05:16:29;;;;;;;8.23;2.70;;;;;;;;;;4999356;28;20036;-68
2022/01/07 05:18:55;;;;;;;5.10;3.08;;;;;;;;;;4998600;28;20034;-68
2022/01/07 05:21:20;;;;;;;5.82;3.10;;;;;;;;;;4997210;28;20518;-68
2022/01/07 05:23:45;;;;;;;3.78;2.72;;;;;;;;;;4997218;28;20032;-68
2022/01/07 05:26:11;;;;;;;4.10;2.50;;;;;;;;;;4993004;28;20025;-68
2022/01/07 05:28:36;;;;;;;3.63;2.70;;;;;;;;;;4995201;28;20069;-70
2022/01/07 05:31:03;;;;;;;5.03;2.50;;;;;;;;;;4994507;28;20600;-69
2022/01/07 05:33:28;;;;;;;4.40;2.63;;;;;;;;;;4995559;28;20027;-70
2022/01/07 05:35:53;;;;;;;5.63;2.65;;;;;;;;;;4997435;28;20045;-69
2022/01/07 05:38:19;;;;;;;4.43;2.70;;;;;;;;;;4996315;28;20042;-69
2022/01/07 05:40:44;;;;;;;6.90;2.67;;;;;;;;;;4997838;28;20042;-69
2022/01/07 05:43:09;;;;;;;3.72;2.60;;;;;;;;;;4997855;28;20924;-69
2022/01/07 05:45:35;;;;;;;3.60;2.75;;;;;;;;;;4997828;28;20087;-69
2022/01/07 05:48:00;;;;;;;3.80;2.60;;;;;;;;;;4997697;28;20034;-70
2022/01/07 05:50:26;;;;;;;6.47;2.67;;;;;;;;;;4996683;28;20056;-69
2022/01/07 05:52:51;;;;;;;7.00;2.80;;;;;;;;;;4997154;28;20127;-69
2022/01/07 05:55:16;;;;;;;3.17;2.10;;;;;;;;;;4995324;28;20049;-69
2022/01/07 05:57:42;;;;;;;5.50;2.38;;;;;;;;;;4997835;28;20040;-68
2022/01/07 06:00:09;;;;;;;5.53;2.63;;;;;;;;;;4996243;28;20052;-69
2022/01/07 06:02:34;;;;;;;4.18;2.20;;;;;;;;;;4997679;28;20402;-69
2022/01/07 06:04:59;;;;;;;4.72;2.30;;;;;;;;;;4997065;28;20080;-69
2022/01/07 06:07:25;;;;;;;4.57;2.38;;;;;;;;;;4997341;28;20065;-68
2022/01/07 06:09:51;;;;;;;4.30;2.30;;;;;;;;;;4997709;28;20119;-68
2022/01/07 06:12:16;;;;;;;2.50;1.90;;;;;;;;;;4995980;28;20037;-69
2022/01/07 06:14:42;;;;;;;5.07;2.33;;;;;;;;;;4996660;28;20250;-69
2022/01/07 06:17:10;;;;;;;3.53;2.35;;;;;;;;;;4996810;28;20049;-68
2022/01/07 06:19:35;;;;;;;3.35;2.20;;;;;;;;;;4996301;28;20034;-68
2022/01/07 06:22:00;;;;;;;4.50;2.63;;;;;;;;;;4995998;28;20030;-68
2022/01/07 06:24:26;;;;;;;4.47;2.00;;;;;;;;;;4997193;28;20728;-69
2022/01/07 06:26:51;;;;;;;5.63;2.30;;;;;;;;;;4995778;28;20603;-69
2022/01/07 06:29:16;;;;;;;4.63;2.38;;;;;;;;;;4996406;28;20037;-69
2022/01/07 06:31:42;;;;;;;3.47;2.38;;;;;;;;;;4997126;28;20081;-69
2022/01/07 06:34:07;;;;;;;5.47;2.25;;;;;;;;;;4996584;28;20038;-69
2022/01/07 06:36:32;;;;;;;3.03;2.17;;;;;;;;;;4996324;28;20027;-69
2022/01/07 06:38:58;;;;;;;3.08;2.05;;;;;;;;;;4994913;28;20025;-69
2022/01/07 06:41:23;;;;;;;5.10;2.30;;;;;;;;;;4979825;28;20352;-69
2022/01/07 06:43:49;;;;;;;6.53;2.40;;;;;;;;;;4996517;28;20030;-69
2022/01/07 06:46:14;;;;;;;3.85;2.25;;;;;;;;;;4993942;28;20029;-68
2022/01/07 06:48:41;;;;;;;4.45;2.08;;;;;;;;;;4997342;28;20117;-69
2022/01/07 06:51:06;;;;;;;1.95;1.75;;;;;;;;;;4994467;28;20030;-69
2022/01/07 06:53:31;;;;;;;3.13;2.10;;;;;;;;;;4993862;28;20038;-69
2022/01/07 06:55:57;;;;;;;2.70;1.80;;;;;;;;;;4996613;28;20026;-68
2022/01/07 06:58:22;;;;;;;3.42;2.22;;;;;;;;;;4995356;28;20110;-69
2022/01/07 07:00:48;;;;;;;2.47;1.80;;;;;;;;;;4994447;28;20511;-69
2022/01/07 07:03:13;;;;;;;4.18;1.83;;;;;;;;;;4995473;28;20069;-69
2022/01/07 07:05:38;;;;;;;2.42;1.60;;;;;;;;;;4996348;28;20061;-69
2022/01/07 07:08:04;;;;;;;2.10;1.70;;;;;;;;;;4995747;28;20058;-70
2022/01/07 07:10:29;;;;;;;3.30;2.00;;;;;;;;;;4975925;28;20494;-69
2022/01/07 07:12:55;;;;;;;1.70;1.60;;;;;;;;;;4978391;28;20240;-68
2022/01/07 07:15:20;;;;;;;2.63;1.60;;;;;;;;;;4996732;28;20029;-69
2022/01/07 07:17:45;;;;;;;2.72;1.80;;;;;;;;;;4991026;28;20042;-69
2022/01/07 07:20:13;;;;;;;2.33;1.55;;;;;;;;;;4992322;28;20290;-70
2022/01/07 07:22:38;;;;;;;2.63;1.70;;;;;;;;;;4992315;28;20030;-69
2022/01/07 07:25:04;;;;;;;2.10;1.90;;;;;;;;;;4994901;28;20459;-69
2022/01/07 07:27:29;;;;;;;3.85;2.15;;;;;;;;;;4997368;28;20069;-69
2022/01/07 07:29:55;;;;;;;2.67;2.00;;;;;;;;;;4997771;28;20069;-69
2022/01/07 07:32:25;;;;;;;3.47;2.35;;;;;;;;;;4993589;28;20061;-69
2022/01/07 07:37:22;;;;;;;2.55;2.03;;;;;;;;;;4979770;28;20041;-69
2022/01/07 07:39:47;;;;;;;2.65;1.58;;;;;;;;;;4980813;28;20104;-69
2022/01/07 07:42:12;;;;;;;2.92;1.80;;;;;;;;;;4997965;28;20038;-69
2022/01/07 07:44:38;;;;;;;2.83;1.67;;;;;;;;;;4999519;28;20079;-69
2022/01/07 07:47:03;;;;;;;3.38;1.65;;;;;;;;;;4998749;28;20034;-69
2022/01/07 07:49:29;;;;;;;4.80;1.73;;;;;;;;;;4999086;28;20117;-69
2022/01/07 07:51:54;;;;;;;2.78;1.90;;;;;;;;;;4997381;28;20056;-69
2022/01/07 07:54:20;;;;;;;1.60;1.50;;;;;;;;;;4999067;28;20033;-69
2022/01/07 07:56:45;;;;;;;2.42;1.73;;;;;;;;;;4997994;28;20049;-70
2022/01/07 07:59:11;;;;;;;3.25;1.80;;;;;;;;;;4998137;28;20404;-70
2022/01/07 08:01:36;;;;;;;1.67;1.58;;;;;;;;;;4997065;28;20034;-69
2022/01/07 08:04:03;;;;;;;2.60;1.67;;;;;;;;;;4995151;28;20044;-69
2022/01/07 08:06:29;;;;;;;4.57;1.80;;;;;;;;;;4998155;28;20459;-69
2022/01/07 08:08:54;;;;;;;2.10;1.73;;;;;;;;;;4996837;28;20200;-69
2022/01/07 08:11:22;;;;;;;3.78;2.00;;;;;;;;;;4997786;28;20124;-70
2022/01/07 08:16:32;;;;;;;7.13;2.40;;;;;;;;;;4997824;28;20052;-69
2022/01/07 08:18:57;;;;;;;4.50;2.10;;;;;;;;;;4997321;28;20038;-69
2022/01/07 08:21:24;;;;;;;3.17;1.85;;;;;;;;;;4997654;28;20033;-70
2022/01/07 08:23:50;;;;;;;3.95;2.42;;;;;;;;;;4997972;28;20033;-69
2022/01/07 08:26:16;;;;;;;3.92;2.00;;;;;;;;;;4996262;28;20037;-70
2022/01/07 08:28:48;;;;;;;3.65;2.13;;;;;;;;;;4998655;28;20101;-70
2022/01/07 08:36:27;;;;;;;3.45;1.90;;;;;;;;;;4997693;28;20118;-69
2022/01/07 08:38:53;;;;;;;4.63;2.08;;;;;;;;;;4996464;28;20034;-69
2022/01/07 08:41:19;;;;;;;5.97;1.48;;;;;;;;;;4996510;28;20456;-69
2022/01/07 08:43:45;;;;;;;2.75;1.17;;;;;;;;;;4998145;28;20037;-69
2022/01/07 08:46:10;;;;;;;1.73;1.35;;;;;;;;;;4997259;28;20081;-69
2022/01/07 08:48:36;;;;;;;2.90;1.35;;;;;;;;;;4996065;28;20408;-69
2022/01/07 08:51:02;;;;;;;2.88;1.10;;;;;;;;;;4990287;28;20037;-70
2022/01/07 08:53:28;;;;;;;0.95;0.95;;;;;;;;;;4995119;28;20401;-70
2022/01/07 08:55:53;;;;;;;1.50;1.02;;;;;;;;;;4962774;28;20034;-69
2022/01/07 08:58:19;;;;;;;1.13;0.98;;;;;;;;;;4997364;28;20516;-70
2022/01/07 09:00:44;;;;;;;1.55;1.10;;;;;;;;;;4992148;28;20041;-69
2022/01/07 09:03:09;;;;;;;2.08;1.17;;;;;;;;;;4993139;28;20029;-70
2022/01/07 09:05:35;;;;;;;1.75;1.27;;;;;;;;;;4994555;28;20037;-69
2022/01/07 09:08:00;;;;;;;1.38;1.27;;;;;;;;;;4992698;28;20037;-70
2022/01/07 09:10:25;;;;;;;2.13;1.50;;;;;;;;;;4997605;28;20155;-70
2022/01/07 09:12:51;;;;;;;2.25;1.60;;;;;;;;;;4996008;28;20053;-69
2022/01/07 09:15:16;;;;;;;9.55;2.10;;;;;;;;;;4995367;28;20053;-69
2022/01/07 09:17:41;;;;;;;2.45;1.73;;;;;;;;;;4996057;28;20117;-69
2022/01/07 09:20:08;;;;;;;1.77;1.52;;;;;;;;;;4975863;28;20023;-69
2022/01/07 09:22:33;;;;;;;3.30;1.70;;;;;;;;;;4993834;28;20034;-70
2022/01/07 09:24:59;;;;;;;4.90;2.10;;;;;;;;;;4994955;28;20350;-69
2022/01/07 09:27:24;;;;;;;4.88;2.67;;;;;;;;;;4993377;28;20034;-69
2022/01/07 09:29:50;;;;;;;4.22;2.30;;;;;;;;;;4976777;28;20469;-69
2022/01/07 09:32:15;;;;;;;4.78;2.17;;;;;;;;;;4992624;28;20073;-69
2022/01/07 09:34:40;;;;;;;3.50;1.98;;;;;;;;;;4995140;28;20117;-69
2022/01/07 09:37:05;;;;;;;4.28;2.28;;;;;;;;;;4990973;28;20054;-69
2022/01/07 09:39:32;;;;;;;3.67;2.08;;;;;;;;;;4990327;28;20088;-69
2022/01/07 09:42:01;;;;;;;3.42;1.80;;;;;;;;;;4995144;28;20531;-69
2022/01/07 09:44:27;;;;;;;1.58;1.48;;;;;;;;;;4994545;28;20031;-69
2022/01/07 09:46:52;;;;;;;1.48;1.38;;;;;;;;;;4977991;28;20089;-69
2022/01/07 09:49:18;;;;;;;2.60;1.67;;;;;;;;;;4994707;28;20029;-69
2022/01/07 09:51:43;;;;;;;1.40;1.30;;;;;;;;;;4994869;28;20037;-69
2022/01/07 09:54:09;;;;;;;2.35;1.60;;;;;;;;;;4992687;28;20030;-69
2022/01/07 09:56:34;;;;;;;1.98;1.38;;;;;;;;;;4992244;28;20599;-69
2022/01/07 09:59:04;;;;;;;1.48;1.20;;;;;;;;;;4978273;28;20046;-69
2022/01/07 10:01:29;;;;;;;1.70;1.33;;;;;;;;;;4978675;28;20045;-70
2022/01/07 10:03:56;;;;;;;2.15;1.20;;;;;;;;;;4996170;28;20276;-69
2022/01/07 10:06:25;;;;;;;1.33;1.20;;;;;;;;;;4995453;28;20038;-69
2022/01/07 10:09:04;;;;;;;2.00;1.38;;;;;;;;;;4995944;28;20030;-70
2022/01/07 10:11:29;;;;;;;1.50;1.38;;;;;;;;;;4993310;28;20035;-69
2022/01/07 10:14:18;;;;;;;5.38;2.05;;;;;;;;;;4995227;28;20042;-69
2022/01/07 10:16:52;;;;;;;1.90;1.38;;;;;;;;;;4977537;28;20417;-69
2022/01/07 10:19:34;;;;;;;3.38;1.73;;;;;;;;;;4994089;28;20551;-69
2022/01/07 10:22:08;;;;;;;2.28;1.60;;;;;;;;;;4978761;28;20531;-69
2022/01/07 10:25:00;;;;;;;2.05;1.60;;;;;;;;;;4993557;28;20021;-69
2022/01/07 10:27:27;;;;;;;2.08;1.50;;;;;;;;;;4992058;28;20033;-69
2022/01/07 10:29:53;;;;;;;3.28;1.70;;;;;;;;;;4992851;28;20026;-69
2022/01/07 10:32:29;;;;;;;1.40;1.30;;;;;;;;;;4991081;28;20026;-69
2022/01/07 10:35:07;;;;;;;1.95;1.70;;;;;;;;;;4992266;28;20030;-70
2022/01/07 10:37:34;;;;;;;1.30;1.20;;;;;;;;;;4993752;28;20942;-70
2022/01/07 10:39:59;;;;;;;1.73;1.33;;;;;;;;;;4989069;28;20579;-69
2022/01/07 10:42:25;;;;;;;1.67;1.10;;;;;;;;;;4994710;28;20036;-69
2022/01/07 10:44:57;;;;;;;2.08;1.20;;;;;;;;;;4996658;28;20057;-69
2022/01/07 10:47:25;;;;;;;1.27;1.13;;;;;;;;;;4993682;28;20033;-69
2022/01/07 10:49:51;;;;;;;1.85;1.15;;;;;;;;;;4994319;28;20026;-69
2022/01/07 10:52:22;;;;;;;3.33;1.15;;;;;;;;;;4994575;28;20619;-69
2022/01/07 10:55:12;;;;;;;2.60;1.20;;;;;;;;;;4996633;28;20030;-69
2022/01/07 10:57:43;;;;;;;1.92;1.25;;;;;;;;;;4990513;28;20037;-69
2022/01/07 11:00:14;;;;;;;14.27;1.88;;;;;;;;;;4967592;28;20924;-69
2022/01/07 11:02:40;;;;;;;7.53;1.20;;;;;;;;;;5000060;28;20025;-70
2022/01/07 11:05:05;;;;;;;1.75;1.20;;;;;;;;;;4996386;28;20058;-69
2022/01/07 11:07:31;;;;;;;1.63;1.23;;;;;;;;;;4978756;28;20034;-69
2022/01/07 11:09:56;;;;;;;2.40;1.55;;;;;;;;;;4995613;28;20100;-70
2022/01/07 11:12:22;;;;;;;2.35;1.20;;;;;;;;;;4998979;28;20324;-69
2022/01/07 11:14:48;;;;;;;1.30;1.20;;;;;;;;;;4995432;28;20056;-70
2022/01/07 11:17:20;;;;;;;1.67;1.30;;;;;;;;;;4994601;28;20052;-69
2022/01/07 11:20:01;;;;;;;4.20;1.60;;;;;;;;;;4993357;28;20057;-69
2022/01/07 11:22:27;;;;;;;1.35;1.25;;;;;;;;;;4980441;28;20026;-69
2022/01/07 11:25:11;;;;;;;1.67;1.45;;;;;;;;;;4996931;28;20026;-69
2022/01/07 11:27:47;;;;;;;1.88;1.30;;;;;;;;;;4999672;28;20117;-69
2022/01/07 11:30:15;;;;;;;1.50;1.40;;;;;;;;;;4995674;28;20038;-69
2022/01/07 11:32:40;;;;;;;1.50;1.40;;;;;;;;;;4997489;28;20404;-69
2022/01/07 11:35:21;;;;;;;3.10;1.40;;;;;;;;;;4997475;28;20026;-69
2022/01/07 11:37:47;;;;;;;3.25;2.00;;;;;;;;;;4995269;28;20909;-69
2022/01/07 11:40:28;;;;;;;1.30;1.20;;;;;;;;;;4993628;28;20034;-70
2022/01/07 11:42:53;;;;;;;1.73;1.33;;;;;;;;;;4997790;28;20469;-70
2022/01/07 11:45:40;;;;;;;2.33;1.48;;;;;;;;;;4998333;28;20026;-69
2022/01/07 11:48:15;;;;;;;3.75;1.60;;;;;;;;;;4997778;28;20128;-69
2022/01/07 11:50:47;;;;;;;2.15;1.08;;;;;;;;;;4997511;28;20034;-69
2022/01/07 11:53:12;;;;;;;1.35;1.25;;;;;;;;;;4997052;28;20029;-69
2022/01/07 11:55:37;;;;;;;1.42;1.20;;;;;;;;;;4998774;28;20042;-69
2022/01/07 11:58:05;;;;;;;1.88;1.55;;;;;;;;;;4996861;28;20109;-69
2022/01/07 12:00:50;;;;;;;3.03;1.85;;;;;;;;;;4995414;28;20061;-69
2022/01/07 12:03:37;;;;;;;1.95;1.40;;;;;;;;;;4999043;28;20604;-69
2022/01/07 12:06:21;;;;;;;3.13;1.27;;;;;;;;;;4998877;28;20084;-69
2022/01/07 12:08:58;;;;;;;1.45;1.33;;;;;;;;;;4997300;28;20030;-69
2022/01/07 12:11:27;;;;;;;1.20;1.20;;;;;;;;;;4997757;28;20025;-69
2022/01/07 12:13:52;;;;;;;1.67;1.33;;;;;;;;;;4998229;28;20042;-69
2022/01/07 12:16:19;;;;;;;1.63;1.23;;;;;;;;;;4995870;28;20040;-69
2022/01/07 12:18:44;;;;;;;2.72;1.60;;;;;;;;;;4995883;28;20061;-69
2022/01/07 12:21:09;;;;;;;4.25;1.55;;;;;;;;;;4997371;28;21048;-69
2022/01/07 12:23:37;;;;;;;1.83;1.50;;;;;;;;;;4981080;28;20371;-68
2022/01/07 12:26:03;;;;;;;2.55;1.60;;;;;;;;;;4999128;28;20064;-69
2022/01/07 12:28:29;;;;;;;2.15;1.48;;;;;;;;;;4997495;28;20034;-69
2022/01/07 12:31:05;;;;;;;2.42;1.40;;;;;;;;;;4993004;28;20065;-70
2022/01/07 12:33:30;;;;;;;2.20;1.60;;;;;;;;;;4997811;28;20033;-69
2022/01/07 12:35:56;;;;;;;6.05;1.50;;;;;;;;;;4995516;28;20034;-68
2022/01/07 12:38:22;;;;;;;1.98;1.75;;;;;;;;;;4996229;28;20043;-69
2022/01/07 12:40:51;;;;;;;2.33;1.40;;;;;;;;;;4996736;28;20025;-69
2022/01/07 12:43:19;;;;;;;3.78;1.60;;;;;;;;;;4999885;28;20030;-68
2022/01/07 12:45:54;;;;;;;2.80;1.50;;;;;;;;;;4998043;28;20491;-69
2022/01/07 12:48:30;;;;;;;1.55;1.40;;;;;;;;;;4996114;28;20045;-69
2022/01/07 12:50:59;;;;;;;2.33;1.73;;;;;;;;;;4993784;28;20038;-70
2022/01/07 12:53:25;;;;;;;2.63;1.67;;;;;;;;;;4995600;28;20065;-72
2022/01/07 12:55:50;;;;;;;2.22;1.55;;;;;;;;;;4980725;28;20045;-70
2022/01/07 12:58:15;;;;;;;2.45;1.73;;;;;;;;;;4998391;28;20081;-71
2022/01/07 13:00:41;;;;;;;2.45;1.35;;;;;;;;;;4979498;28;20042;-70
2022/01/07 13:03:07;;;;;;;2.92;1.42;;;;;;;;;;4995883;28;20389;-71
2022/01/07 13:05:37;;;;;;;4.68;1.80;;;;;;;;;;5012065;28;20030;-71
2022/01/07 13:08:09;;;;;;;2.08;1.80;;;;;;;;;;4980992;28;20041;-72
2022/01/07 13:10:37;;;;;;;2.65;1.65;;;;;;;;;;4996680;28;20022;-70
2022/01/07 13:13:18;;;;;;;2.28;1.27;;;;;;;;;;4995202;28;20037;-69
2022/01/07 13:15:54;;;;;;;2.83;1.70;;;;;;;;;;4997123;28;20037;-70
2022/01/07 13:18:29;;;;;;;2.05;1.40;;;;;;;;;;4997792;28;20030;-71
2022/01/07 13:21:11;;;;;;;1.63;1.52;;;;;;;;;;4996181;28;20405;-72
2022/01/07 13:23:41;;;;;;;1.63;1.52;;;;;;;;;;4993312;28;20038;-70
2022/01/07 13:26:07;;;;;;;1.90;1.70;;;;;;;;;;4993399;28;20030;-70
2022/01/07 13:28:43;;;;;;;1.65;1.25;;;;;;;;;;4993229;28;20546;-71
2022/01/07 13:31:09;;;;;;;2.60;1.65;;;;;;;;;;4993883;28;20038;-70
2022/01/07 13:33:35;;;;;;;1.90;1.35;;;;;;;;;;4992858;28;20037;-71
2022/01/07 13:36:02;;;;;;;2.13;1.65;;;;;;;;;;4994884;28;20037;-71
2022/01/07 13:38:28;;;;;;;1.98;1.70;;;;;;;;;;4997547;28;20393;-70
2022/01/07 13:41:04;;;;;;;2.05;1.63;;;;;;;;;;4996562;28;20203;-71
2022/01/07 13:43:30;;;;;;;3.17;1.73;;;;;;;;;;4995234;28;20034;-70
2022/01/07 13:46:07;;;;;;;2.10;1.45;;;;;;;;;;4996594;28;20063;-70
2022/01/07 13:48:32;;;;;;;3.78;1.77;;;;;;;;;;4980364;28;20076;-71
2022/01/07 13:51:08;;;;;;;4.57;2.05;;;;;;;;;;4997603;28;20155;-70
2022/01/07 13:53:33;;;;;;;3.70;1.40;;;;;;;;;;4979378;28;20083;-70
2022/01/07 13:56:05;;;;;;;1.75;1.50;;;;;;;;;;4997768;28;20033;-71
2022/01/07 13:58:31;;;;;;;1.80;1.70;;;;;;;;;;4997339;28;20033;-70
2022/01/07 14:01:03;;;;;;;2.20;1.50;;;;;;;;;;4996490;28;20030;-72
2022/01/07 14:03:28;;;;;;;2.03;1.50;;;;;;;;;;4975237;28;20507;-70
2022/01/07 14:06:01;;;;;;;1.35;1.25;;;;;;;;;;4972616;28;20022;-71
2022/01/07 14:08:26;;;;;;;3.20;1.50;;;;;;;;;;4988877;28;20022;-70
2022/01/07 14:10:52;;;;;;;1.45;1.35;;;;;;;;;;4991421;28;20443;-70
2022/01/07 14:13:19;;;;;;;1.42;1.33;;;;;;;;;;4994590;28;20609;-70
2022/01/07 14:15:54;;;;;;;2.03;1.33;;;;;;;;;;4995383;28;20030;-70
2022/01/07 14:18:21;;;;;;;7.40;1.50;;;;;;;;;;5006531;28;20037;-70
2022/01/07 14:20:51;;;;;;;4.10;1.50;;;;;;;;;;4993316;28;20040;-70
2022/01/07 14:23:19;;;;;;;1.65;1.55;;;;;;;;;;4995137;28;20443;-71
2022/01/07 14:25:44;;;;;;;1.27;1.10;;;;;;;;;;4977722;28;20018;-70
2022/01/07 14:28:10;;;;;;;4.22;1.88;;;;;;;;;;4986202;28;20088;-70
2022/01/07 14:30:36;;;;;;;2.40;1.42;;;;;;;;;;4976362;28;20509;-71
2022/01/07 14:33:01;;;;;;;1.85;1.40;;;;;;;;;;4990532;28;20026;-70
2022/01/07 14:35:27;;;;;;;2.50;1.30;;;;;;;;;;4997118;28;20314;-70
2022/01/07 14:37:52;;;;;;;1.65;1.45;;;;;;;;;;4998138;28;20037;-70
2022/01/07 14:40:17;;;;;;;3.95;1.63;;;;;;;;;;4998575;28;20025;-70
2022/01/07 14:42:43;;;;;;;2.03;1.48;;;;;;;;;;4998690;28;20049;-70
2022/01/07 14:45:10;;;;;;;1.88;1.58;;;;;;;;;;4996415;28;20550;-70
2022/01/07 14:47:36;;;;;;;2.70;1.58;;;;;;;;;;4993551;28;20038;-71
2022/01/07 14:50:01;;;;;;;2.75;1.52;;;;;;;;;;4997246;28;20041;-71
2022/01/07 14:52:26;;;;;;;1.40;1.30;;;;;;;;;;4997063;28;20033;-70